createdAt,value
2022-12-08T00:01:44.416Z,2.20
2022-12-08T00:04:13.242Z,2.07
2022-12-08T00:07:01.799Z,1.96
2022-12-08T00:09:38.966Z,1.82
2022-12-08T00:12:10.970Z,1.67
2022-12-08T00:14:42.832Z,1.54
2022-12-08T00:17:14.312Z,1.37
2022-12-08T00:19:44.400Z,1.30
2022-12-08T00:22:14.823Z,1.28
2022-12-08T00:24:46.424Z,1.19
2022-12-08T00:27:18.142Z,1.07
2022-12-08T00:29:47.280Z,1.03
2022-12-08T00:32:16.001Z,1.02
2022-12-08T00:34:44.704Z,1.07
2022-12-08T00:37:13.242Z,1.07
2022-12-08T00:39:41.777Z,1.06
2022-12-08T00:42:14.631Z,1.03
2022-12-08T00:44:45.760Z,1.07
2022-12-08T00:47:19.785Z,1.17
2022-12-08T00:49:50.742Z,1.19
2022-12-08T00:52:19.309Z,1.25
2022-12-08T00:54:48.312Z,1.19
2022-12-08T00:57:18.195Z,1.21
2022-12-08T00:59:46.667Z,1.29
2022-12-08T01:02:15.941Z,1.32
2022-12-08T01:04:44.974Z,1.42
2022-12-08T01:07:13.641Z,1.51
2022-12-08T01:09:42.160Z,1.51
2022-12-08T01:12:10.859Z,1.60
2022-12-08T01:14:40.770Z,1.58
2022-12-08T01:17:09.634Z,1.60
2022-12-08T01:19:39.087Z,1.59
2022-12-08T01:22:07.652Z,1.66
2022-12-08T01:24:36.855Z,1.66
2022-12-08T01:27:05.705Z,1.68
2022-12-08T01:29:34.526Z,1.77
2022-12-08T01:32:04.702Z,1.77
2022-12-08T01:34:33.446Z,1.75
2022-12-08T01:37:02.199Z,1.79
2022-12-08T01:39:31.029Z,1.77
2022-12-08T01:41:59.538Z,1.80
2022-12-08T01:45:06.758Z,1.78
2022-12-08T01:47:49.475Z,1.83
2022-12-08T01:50:21.499Z,1.83
2022-12-08T01:52:56.095Z,1.77
2022-12-08T01:55:32.540Z,1.86
2022-12-08T01:58:09.495Z,1.77
2022-12-08T02:00:38.208Z,1.83
2022-12-08T02:03:14.907Z,1.93
2022-12-08T02:05:44.905Z,1.91
2022-12-08T02:08:15.392Z,1.94
2022-12-08T02:10:44.909Z,2.06
2022-12-08T02:13:17.962Z,2.11
2022-12-08T02:16:02.816Z,2.15
2022-12-08T02:19:28.652Z,2.12
2022-12-08T02:21:59.546Z,2.07
2022-12-08T02:24:38.527Z,2.09
2022-12-08T02:27:39.488Z,2.03
2022-12-08T02:30:25.369Z,2.03
2022-12-08T02:33:50.098Z,1.97
2022-12-08T02:36:28.472Z,2.04
2022-12-08T02:39:07.980Z,2.04
2022-12-08T02:41:47.566Z,2.06
2022-12-08T02:44:29.134Z,2.06
2022-12-08T02:47:05.533Z,2.05
2022-12-08T02:49:37.024Z,2.04
2022-12-08T02:52:08.631Z,2.06
2022-12-08T02:54:38.574Z,2.11
2022-12-08T02:57:26.579Z,2.14
2022-12-08T03:00:10.071Z,2.12
2022-12-08T03:02:57.937Z,2.12
2022-12-08T03:05:52.747Z,2.18
2022-12-08T03:08:32.113Z,2.16
2022-12-08T03:11:10.341Z,2.23
2022-12-08T03:13:46.065Z,2.31
2022-12-08T03:16:21.896Z,2.32
2022-12-08T03:18:57.782Z,2.22
2022-12-08T03:21:28.398Z,2.32
2022-12-08T03:23:58.896Z,2.30
2022-12-08T03:26:37.203Z,2.35
2022-12-08T03:29:06.421Z,2.41
2022-12-08T03:31:43.024Z,2.39
2022-12-08T03:34:15.109Z,2.41
2022-12-08T03:36:45.709Z,2.49
2022-12-08T03:39:14.418Z,2.50
2022-12-08T03:41:43.074Z,2.44
2022-12-08T03:44:11.669Z,2.47
2022-12-08T03:46:40.418Z,2.41
2022-12-08T03:49:08.883Z,2.44
2022-12-08T03:51:37.608Z,2.49
2022-12-08T03:54:07.755Z,2.43
2022-12-08T03:56:39.359Z,2.41
2022-12-08T03:59:09.625Z,2.50
2022-12-08T04:01:38.392Z,2.41
2022-12-08T04:04:06.990Z,2.39
2022-12-08T04:06:35.673Z,2.45
2022-12-08T04:09:05.734Z,2.48
2022-12-08T04:11:35.574Z,2.47
2022-12-08T04:14:04.091Z,2.49
2022-12-08T04:16:32.830Z,2.51
2022-12-08T04:19:01.497Z,2.62
2022-12-08T04:21:30.321Z,2.67
2022-12-08T04:24:01.236Z,2.69
2022-12-08T04:26:30.556Z,2.68
2022-12-08T04:29:00.444Z,2.74
2022-12-08T04:31:29.013Z,2.78
2022-12-08T04:33:57.618Z,2.79
2022-12-08T04:36:26.296Z,2.77
2022-12-08T04:38:55.073Z,2.82
2022-12-08T04:41:23.715Z,2.68
2022-12-08T04:43:52.207Z,2.74
2022-12-08T04:46:22.151Z,2.65
2022-12-08T04:48:50.748Z,2.63
2022-12-08T04:51:21.050Z,2.51
2022-12-08T04:53:49.621Z,2.53
2022-12-08T04:56:20.716Z,2.44
2022-12-08T04:58:49.329Z,2.49
2022-12-08T05:01:18.069Z,2.48
2022-12-08T05:03:48.033Z,2.50
2022-12-08T05:06:16.920Z,2.56
2022-12-08T05:08:45.766Z,2.51
2022-12-08T05:11:14.750Z,2.43
2022-12-08T05:13:43.474Z,2.56
2022-12-08T05:16:15.006Z,2.48
2022-12-08T05:18:44.569Z,2.58
2022-12-08T05:21:14.667Z,2.46
2022-12-08T05:23:43.866Z,2.50
2022-12-08T05:26:12.521Z,2.58
2022-12-08T05:28:42.657Z,2.55
2022-12-08T05:31:12.623Z,2.60
2022-12-08T05:33:42.202Z,2.61
2022-12-08T05:36:15.279Z,2.58
2022-12-08T05:38:44.345Z,2.56
2022-12-08T05:41:17.056Z,2.45
2022-12-08T05:43:45.715Z,2.28
2022-12-08T05:46:16.084Z,2.09
2022-12-08T05:48:44.831Z,1.99
2022-12-08T05:51:20.097Z,1.74
2022-12-08T05:53:50.736Z,1.63
2022-12-08T05:56:20.991Z,1.61
2022-12-08T05:58:51.354Z,1.53
2022-12-08T06:01:25.346Z,1.52
2022-12-08T06:03:54.846Z,1.43
2022-12-08T06:06:24.893Z,1.40
2022-12-08T06:08:54.281Z,1.45
2022-12-08T06:11:27.041Z,1.48
2022-12-08T06:13:56.820Z,1.46
2022-12-08T06:16:27.095Z,1.51
2022-12-08T06:18:57.673Z,1.58
2022-12-08T06:21:27.521Z,1.57
2022-12-08T06:23:56.789Z,1.62
2022-12-08T06:26:25.420Z,1.71
2022-12-08T06:28:55.018Z,1.70
2022-12-08T06:31:26.467Z,1.60
2022-12-08T06:33:56.848Z,1.55
2022-12-08T06:36:29.031Z,1.48
2022-12-08T06:38:58.497Z,1.35
2022-12-08T06:41:27.636Z,1.20
2022-12-08T06:43:57.612Z,1.02
2022-12-08T06:46:26.931Z,0.95
2022-12-08T06:48:55.615Z,0.86
2022-12-08T06:51:24.392Z,0.92
2022-12-08T06:53:54.746Z,1.02
2022-12-08T06:56:27.905Z,1.14
2022-12-08T06:58:56.704Z,1.27
2022-12-08T07:01:25.378Z,1.31
2022-12-08T07:03:54.077Z,1.40
2022-12-08T07:06:25.880Z,1.51
2022-12-08T07:08:56.161Z,1.55
2022-12-08T07:11:24.897Z,1.63
2022-12-08T07:13:53.478Z,1.74
2022-12-08T07:16:22.084Z,1.83
2022-12-08T07:18:51.293Z,1.90
2022-12-08T07:21:20.076Z,1.92
2022-12-08T07:23:56.002Z,1.98
2022-12-08T07:26:27.882Z,2.12
2022-12-08T07:28:56.603Z,2.17
2022-12-08T07:31:28.516Z,2.29
2022-12-08T07:33:58.839Z,2.27
2022-12-08T07:36:28.872Z,2.40
2022-12-08T07:38:57.523Z,2.50
2022-12-08T07:41:28.279Z,2.61
2022-12-08T07:43:58.118Z,2.71
2022-12-08T07:46:28.066Z,2.65
2022-12-08T07:48:57.103Z,2.64
2022-12-08T07:51:26.057Z,2.85
2022-12-08T07:53:55.484Z,2.86
2022-12-08T07:56:24.973Z,2.85
2022-12-08T07:58:55.103Z,2.90
2022-12-08T08:01:28.032Z,2.92
2022-12-08T08:04:01.545Z,2.95
2022-12-08T08:06:30.656Z,2.82
2022-12-08T08:08:59.293Z,2.75
2022-12-08T08:11:29.972Z,2.68
2022-12-08T08:14:00.619Z,2.76
2022-12-08T08:16:33.637Z,2.77
2022-12-08T08:19:06.900Z,2.76
2022-12-08T08:21:45.397Z,2.77
2022-12-08T08:24:14.815Z,2.86
2022-12-08T08:26:44.006Z,2.85
2022-12-08T08:29:16.535Z,2.89
2022-12-08T08:31:45.422Z,2.87
2022-12-08T08:34:14.386Z,2.73
2022-12-08T08:36:43.037Z,2.92
2022-12-08T08:39:12.558Z,2.80
2022-12-08T08:41:41.450Z,2.84
2022-12-08T08:44:10.157Z,2.94
2022-12-08T08:46:40.374Z,3.06
2022-12-08T08:49:09.555Z,3.07
2022-12-08T08:51:38.449Z,3.15
2022-12-08T08:54:07.117Z,3.18
2022-12-08T08:56:35.631Z,3.05
2022-12-08T08:59:04.560Z,3.00
2022-12-08T09:01:33.250Z,2.98
2022-12-08T09:04:03.669Z,2.99
2022-12-08T09:06:33.581Z,3.03
2022-12-08T09:09:03.142Z,3.09
2022-12-08T09:11:32.780Z,2.94
2022-12-08T09:14:01.494Z,2.92
2022-12-08T09:16:30.234Z,3.03
2022-12-08T09:18:59.355Z,3.16
2022-12-08T09:21:29.376Z,3.36
2022-12-08T09:24:00.434Z,3.57
2022-12-08T09:26:29.997Z,3.58
2022-12-08T09:29:00.465Z,3.76
2022-12-08T09:31:29.334Z,3.79
2022-12-08T09:33:58.108Z,3.99
2022-12-08T09:36:28.552Z,3.98
2022-12-08T09:38:57.800Z,4.06
2022-12-08T09:41:41.788Z,3.91
2022-12-08T09:44:45.309Z,4.32
2022-12-08T09:47:26.715Z,4.28
2022-12-08T09:50:07.788Z,4.36
2022-12-08T09:52:44.805Z,4.30
2022-12-08T09:55:24.024Z,4.30
2022-12-08T09:58:04.101Z,4.18
2022-12-08T10:00:33.431Z,4.05
2022-12-08T10:03:03.434Z,3.93
2022-12-08T10:05:39.047Z,3.88
2022-12-08T10:08:20.002Z,3.81
2022-12-08T10:10:57.921Z,3.80
2022-12-08T10:13:38.055Z,3.74
2022-12-08T10:16:29.788Z,3.77
2022-12-08T10:19:14.094Z,3.86
2022-12-08T10:21:43.310Z,3.89
2022-12-08T10:24:24.014Z,4.02
2022-12-08T10:26:53.045Z,4.14
2022-12-08T10:29:21.525Z,4.46
2022-12-08T10:31:50.409Z,4.52
2022-12-08T10:34:23.184Z,4.68
2022-12-08T10:36:57.039Z,4.77
2022-12-08T10:39:39.335Z,4.96
2022-12-08T10:42:20.011Z,5.25
2022-12-08T10:45:01.995Z,5.48
2022-12-08T10:47:37.863Z,5.48
2022-12-08T10:50:20.037Z,6.09
2022-12-08T10:52:57.359Z,6.21
2022-12-08T10:55:30.070Z,6.31
2022-12-08T10:57:58.961Z,6.34
2022-12-08T11:00:29.342Z,6.37
2022-12-08T11:03:04.457Z,6.62
2022-12-08T11:05:38.090Z,6.37
2022-12-08T11:08:09.782Z,6.30
2022-12-08T11:10:46.843Z,6.20
2022-12-08T11:13:24.809Z,6.04
2022-12-08T11:15:56.173Z,5.69
2022-12-08T11:18:32.198Z,5.57
2022-12-08T11:21:09.096Z,5.67
2022-12-08T11:23:38.913Z,5.78
2022-12-08T11:26:23.179Z,5.80
2022-12-08T11:28:51.785Z,5.90
2022-12-08T11:31:31.449Z,5.81
2022-12-08T11:34:00.106Z,5.98
2022-12-08T11:36:34.763Z,5.75
2022-12-08T11:39:06.213Z,5.76
2022-12-08T11:41:42.087Z,5.73
2022-12-08T11:44:27.099Z,5.67
2022-12-08T11:47:00.984Z,5.40
2022-12-08T11:49:37.908Z,5.63
2022-12-08T11:52:19.230Z,5.80
2022-12-08T11:54:56.195Z,5.82
2022-12-08T11:57:30.738Z,5.78
2022-12-08T12:00:04.013Z,5.73
2022-12-08T12:02:52.838Z,5.57
2022-12-08T12:08:47.201Z,5.00
2022-12-08T12:11:47.651Z,5.02
2022-12-08T12:14:47.091Z,5.02
2022-12-08T12:17:41.554Z,4.98
2022-12-08T12:20:20.054Z,5.03
2022-12-08T12:22:57.042Z,5.19
2022-12-08T12:25:27.846Z,5.34
2022-12-08T12:28:04.114Z,5.52
2022-12-08T12:30:55.482Z,5.69
2022-12-08T12:33:24.819Z,5.93
2022-12-08T12:35:58.072Z,5.97
2022-12-08T12:38:51.797Z,5.95
2022-12-08T12:41:27.196Z,5.82
2022-12-08T12:44:38.955Z,5.79
2022-12-08T12:47:16.042Z,5.80
2022-12-08T12:50:08.779Z,5.69
2022-12-08T12:52:53.184Z,5.69
2022-12-08T12:55:54.594Z,5.61
2022-12-08T12:58:42.537Z,5.47
2022-12-08T13:01:57.702Z,5.30
2022-12-08T13:04:36.891Z,5.15
2022-12-08T13:07:07.119Z,5.15
2022-12-08T13:09:41.571Z,5.19
2022-12-08T13:12:20.474Z,5.24
2022-12-08T13:14:52.459Z,5.18
2022-12-08T13:17:31.450Z,5.12
2022-12-08T13:20:07.225Z,4.67
2022-12-08T13:23:13.519Z,4.44
2022-12-08T13:25:54.731Z,4.22
2022-12-08T13:28:29.466Z,4.10
2022-12-08T13:31:00.208Z,3.98
2022-12-08T13:33:33.733Z,3.90
2022-12-08T13:36:18.562Z,3.85
2022-12-08T13:38:49.927Z,3.74
2022-12-08T13:41:25.830Z,3.74
2022-12-08T13:45:03.592Z,3.60
2022-12-08T13:58:40.153Z,3.61
2022-12-08T14:01:16.337Z,3.53
2022-12-08T14:04:22.170Z,3.48
2022-12-08T14:06:47.735Z,3.70
2022-12-08T14:09:22.305Z,3.78
2022-12-08T14:11:58.064Z,3.74
2022-12-08T14:15:02.453Z,3.70
2022-12-08T14:17:22.415Z,3.55
2022-12-08T14:19:57.508Z,3.57
2022-12-08T14:22:33.235Z,3.44
2022-12-08T14:25:05.731Z,3.34
2022-12-08T14:27:37.630Z,3.10
2022-12-08T14:30:16.685Z,3.26
2022-12-08T14:32:50.312Z,3.22
2022-12-08T14:35:26.874Z,2.97
2022-12-08T14:37:59.393Z,2.65
2022-12-08T14:40:35.312Z,2.64
2022-12-08T14:43:18.415Z,2.47
2022-12-08T14:45:53.432Z,2.31
2022-12-08T14:48:25.731Z,2.04
2022-12-08T14:51:05.993Z,1.83
2022-12-08T14:53:42.226Z,1.77
2022-12-08T14:56:21.596Z,1.67
2022-12-08T14:59:02.695Z,1.58
2022-12-08T15:01:32.176Z,1.52
2022-12-08T15:04:19.126Z,1.48
2022-12-08T15:06:54.421Z,1.38
2022-12-08T15:09:36.587Z,1.22
2022-12-08T15:12:26.414Z,1.11
2022-12-08T15:15:02.139Z,1.11
2022-12-08T15:17:36.976Z,1.10
2022-12-08T15:20:08.346Z,1.09
2022-12-08T15:22:37.356Z,1.21
2022-12-08T15:25:13.757Z,1.35
2022-12-08T15:27:50.442Z,1.59
2022-12-08T15:30:20.359Z,1.79
2022-12-08T15:32:54.672Z,2.03
2022-12-08T15:35:23.515Z,2.21
2022-12-08T15:37:52.174Z,2.35
2022-12-08T15:40:26.276Z,2.48
2022-12-08T15:42:56.278Z,2.61
2022-12-08T15:45:31.782Z,2.68
2022-12-08T15:48:00.424Z,2.73
2022-12-08T15:50:29.089Z,2.82
2022-12-08T15:52:57.755Z,2.89
2022-12-08T15:55:26.274Z,2.88
2022-12-08T16:00:54.160Z,3.00
2022-12-08T16:04:14.320Z,2.96
2022-12-08T16:09:19.558Z,3.05
2022-12-08T16:12:08.336Z,2.97
2022-12-08T16:17:30.928Z,2.83
2022-12-08T16:20:00.149Z,2.70
2022-12-08T16:25:22.303Z,2.63
2022-12-08T16:28:36.991Z,2.50
2022-12-08T16:30:44.780Z,2.51
2022-12-08T16:33:14.308Z,2.53
2022-12-08T16:35:43.441Z,2.45
2022-12-08T16:38:16.665Z,2.35
2022-12-08T16:41:05.127Z,2.35
2022-12-08T16:43:35.317Z,2.16
2022-12-08T16:46:05.839Z,2.07
2022-12-08T16:48:34.591Z,1.97
2022-12-08T16:51:04.533Z,1.96
2022-12-08T16:53:37.289Z,2.03
2022-12-08T16:56:06.339Z,2.05
2022-12-08T16:58:34.848Z,2.07
2022-12-08T17:01:05.281Z,2.15
2022-12-08T17:03:34.429Z,2.34
2022-12-08T17:06:09.025Z,2.20
2022-12-08T17:08:41.059Z,2.23
2022-12-08T17:11:12.826Z,2.33
2022-12-08T17:13:43.174Z,2.42
2022-12-08T17:16:20.257Z,2.39
2022-12-08T17:18:49.279Z,2.50
2022-12-08T17:21:19.081Z,2.45
2022-12-08T17:23:48.510Z,2.57
2022-12-08T17:26:17.272Z,2.52
2022-12-08T17:29:02.273Z,2.68
2022-12-08T17:31:33.761Z,2.75
2022-12-08T17:34:03.624Z,2.67
2022-12-08T17:36:33.010Z,2.78
2022-12-08T17:39:02.031Z,2.80
2022-12-08T17:41:31.821Z,2.87
2022-12-08T17:44:00.810Z,2.83
2022-12-08T17:46:31.426Z,2.73
2022-12-08T17:49:00.374Z,2.75
2022-12-08T17:51:29.099Z,2.91
2022-12-08T17:54:01.001Z,2.85
2022-12-08T17:56:30.011Z,2.82
2022-12-08T17:59:03.334Z,2.49
2022-12-08T18:01:34.618Z,2.57
2022-12-08T18:04:06.857Z,2.74
2022-12-08T18:06:36.683Z,2.69
2022-12-08T18:09:08.798Z,2.52
2022-12-08T18:11:47.095Z,2.39
2022-12-08T18:14:17.600Z,2.49
2022-12-08T18:16:49.096Z,2.43
2022-12-08T18:19:18.021Z,2.24
2022-12-08T18:21:46.732Z,2.12
2022-12-08T18:24:22.168Z,2.25
2022-12-08T18:26:55.339Z,2.36
2022-12-08T18:29:25.288Z,2.41
2022-12-08T18:31:55.524Z,2.26
2022-12-08T18:34:27.063Z,2.17
2022-12-08T18:36:56.048Z,2.47
2022-12-08T18:39:27.546Z,2.35
2022-12-08T18:41:58.581Z,2.34
2022-12-08T18:44:27.272Z,2.29
2022-12-08T18:46:57.510Z,2.40
2022-12-08T18:49:26.447Z,2.60
2022-12-08T18:51:54.951Z,2.47
2022-12-08T18:54:37.110Z,2.42
2022-12-08T18:57:12.507Z,2.31
2022-12-08T18:59:41.079Z,2.32
2022-12-08T19:02:12.322Z,2.41
2022-12-08T19:04:42.121Z,2.32
2022-12-08T19:07:12.364Z,2.23
2022-12-08T19:09:42.229Z,2.38
2022-12-08T19:12:12.951Z,2.06
2022-12-08T19:14:42.414Z,2.12
2022-12-08T19:17:12.456Z,1.97
2022-12-08T19:19:41.826Z,2.17
2022-12-08T19:22:10.419Z,2.22
2022-12-08T19:24:39.107Z,2.22
2022-12-08T19:27:10.443Z,2.01
2022-12-08T19:29:39.037Z,1.98
2022-12-08T19:32:07.813Z,2.18
2022-12-08T19:34:37.861Z,2.03
2022-12-08T19:37:06.800Z,2.12
2022-12-08T19:39:52.505Z,2.38
2022-12-08T19:42:39.918Z,2.43
2022-12-08T19:45:14.095Z,2.32
2022-12-08T19:47:43.643Z,2.24
2022-12-08T19:50:33.800Z,2.29
2022-12-08T19:53:05.102Z,2.33
2022-12-08T19:55:34.600Z,2.22
2022-12-08T19:58:03.776Z,2.18
2022-12-08T20:00:34.447Z,2.14
2022-12-08T20:03:04.849Z,2.02
2022-12-08T20:05:37.584Z,2.00
2022-12-08T20:08:07.291Z,1.88
2022-12-08T20:10:39.617Z,1.90
2022-12-08T20:13:27.655Z,2.04
2022-12-08T20:15:56.624Z,2.02
2022-12-08T20:18:30.034Z,1.87
2022-12-08T20:21:00.512Z,1.90
2022-12-08T20:23:29.060Z,1.83
2022-12-08T20:25:57.782Z,2.05
2022-12-08T20:28:26.737Z,2.05
2022-12-08T20:30:55.305Z,2.07
2022-12-08T20:33:24.268Z,2.02
2022-12-08T20:36:02.329Z,2.00
2022-12-08T20:38:34.808Z,1.86
2022-12-08T20:41:03.594Z,2.11
2022-12-08T20:43:32.175Z,2.03
2022-12-08T20:46:00.774Z,2.02
2022-12-08T20:48:29.728Z,1.78
2022-12-08T20:50:59.770Z,1.73
2022-12-08T20:53:28.488Z,1.84
2022-12-08T20:55:57.492Z,1.98
2022-12-08T20:58:26.350Z,2.10
2022-12-08T21:00:55.083Z,2.12
2022-12-08T21:03:23.820Z,1.89
2022-12-08T21:05:53.641Z,2.10
2022-12-08T21:08:25.917Z,2.13
2022-12-08T21:10:56.690Z,2.07
2022-12-08T21:13:30.561Z,2.30
2022-12-08T21:15:59.963Z,2.38
2022-12-08T21:18:38.924Z,2.30
2022-12-08T21:21:11.379Z,2.17
2022-12-08T21:23:42.093Z,2.25
2022-12-08T21:26:27.851Z,2.12
2022-12-08T21:28:59.049Z,2.13
2022-12-08T21:31:29.350Z,2.18
2022-12-08T21:33:58.519Z,2.24
2022-12-08T21:36:31.697Z,2.35
2022-12-08T21:39:02.887Z,2.40
2022-12-08T21:41:49.330Z,1.91
2022-12-08T21:44:19.555Z,2.11
2022-12-08T21:46:48.476Z,2.15
2022-12-08T21:49:18.008Z,2.13
2022-12-08T21:51:46.591Z,2.21
2022-12-08T21:54:18.970Z,2.06
2022-12-08T21:56:50.471Z,2.19
2022-12-08T21:59:20.817Z,2.22
2022-12-08T22:01:49.830Z,2.16
2022-12-08T22:04:21.544Z,1.85
2022-12-08T22:06:50.773Z,2.00
2022-12-08T22:09:21.009Z,1.87
2022-12-08T22:11:49.866Z,1.94
2022-12-08T22:14:18.569Z,1.97
2022-12-08T22:16:47.380Z,1.93
2022-12-08T22:19:16.021Z,1.76
2022-12-08T22:21:44.732Z,1.94
2022-12-08T22:24:13.363Z,1.97
2022-12-08T22:26:43.174Z,1.91
2022-12-08T22:29:11.821Z,1.74
2022-12-08T22:31:40.542Z,1.63
2022-12-08T22:34:09.210Z,1.78
2022-12-08T22:36:37.909Z,1.78
2022-12-08T22:39:06.645Z,1.60
2022-12-08T22:41:35.193Z,1.67
2022-12-08T22:44:07.008Z,1.66
2022-12-08T22:46:35.880Z,1.68
2022-12-08T22:49:04.638Z,1.68
2022-12-08T22:51:33.212Z,1.89
2022-12-08T22:54:01.681Z,1.93
2022-12-08T22:56:30.183Z,1.81
2022-12-08T22:58:59.898Z,1.63
2022-12-08T23:01:33.230Z,1.69
2022-12-08T23:04:03.061Z,1.78
2022-12-08T23:06:32.733Z,1.66
2022-12-08T23:09:01.762Z,1.76
2022-12-08T23:11:31.964Z,1.79
2022-12-08T23:14:01.589Z,2.10
2022-12-08T23:16:33.540Z,2.16
2022-12-08T23:19:02.312Z,2.07
2022-12-08T23:21:31.148Z,2.11
2022-12-08T23:24:02.678Z,1.99
2022-12-08T23:26:35.332Z,1.90
2022-12-08T23:29:05.074Z,1.96
2022-12-08T23:31:35.063Z,1.95
2022-12-08T23:34:03.977Z,2.22
2022-12-08T23:36:32.689Z,2.28
2022-12-08T23:39:01.422Z,2.21
2022-12-08T23:41:30.075Z,2.22
2022-12-08T23:43:59.524Z,2.11
2022-12-08T23:46:28.243Z,2.20
2022-12-08T23:48:58.593Z,2.20
2022-12-08T23:51:27.133Z,2.08
2022-12-08T23:53:55.737Z,2.03
2022-12-08T23:56:30.055Z,1.93
2022-12-08T23:58:59.424Z,1.67
